createdAt,value
2022-10-08T00:01:35.026Z,20.70
2022-10-08T00:04:04.048Z,21.17
2022-10-08T00:06:34.976Z,22.17
2022-10-08T00:09:05.970Z,22.02
2022-10-08T00:11:36.060Z,21.20
2022-10-08T00:14:07.533Z,21.35
2022-10-08T00:16:38.971Z,21.88
2022-10-08T00:19:10.419Z,21.50
2022-10-08T00:21:40.259Z,20.00
2022-10-08T00:24:12.301Z,21.15
2022-10-08T00:26:43.853Z,20.50
2022-10-08T00:29:17.542Z,20.45
2022-10-08T00:31:48.568Z,20.83
2022-10-08T00:34:20.005Z,21.48
2022-10-08T00:36:52.840Z,20.02
2022-10-08T00:39:23.197Z,20.05
2022-10-08T00:41:54.113Z,20.50
2022-10-08T00:44:54.994Z,21.73
2022-10-08T00:47:43.413Z,23.27
2022-10-08T00:50:15.874Z,22.25
2022-10-08T00:52:47.697Z,21.10
2022-10-08T00:55:20.177Z,23.27
2022-10-08T00:57:48.948Z,22.35
2022-10-08T01:00:23.177Z,23.10
2022-10-08T01:02:52.549Z,22.45
2022-10-08T01:05:28.937Z,21.13
2022-10-08T01:08:03.566Z,19.88
2022-10-08T01:10:40.192Z,20.05
2022-10-08T01:13:20.793Z,19.85
2022-10-08T01:16:02.208Z,19.80
2022-10-08T01:18:38.668Z,21.63
2022-10-08T01:21:13.745Z,20.38
2022-10-08T01:24:14.552Z,19.55
2022-10-08T01:26:57.097Z,18.73
2022-10-08T01:29:31.203Z,17.27
2022-10-08T01:32:04.256Z,16.38
2022-10-08T01:34:37.830Z,17.08
2022-10-08T01:37:09.093Z,17.02
2022-10-08T01:39:40.913Z,17.70
2022-10-08T01:42:11.421Z,16.58
2022-10-08T01:44:47.210Z,16.30
2022-10-08T01:47:20.184Z,18.17
2022-10-08T01:49:54.879Z,16.98
2022-10-08T01:52:28.255Z,16.70
2022-10-08T01:55:01.432Z,17.00
2022-10-08T01:57:31.823Z,16.10
2022-10-08T02:00:04.691Z,17.45
2022-10-08T02:02:42.132Z,19.70
2022-10-08T02:05:11.344Z,19.13
2022-10-08T02:07:42.510Z,18.83
2022-10-08T02:10:13.736Z,18.75
2022-10-08T02:12:42.834Z,19.95
2022-10-08T02:15:17.066Z,19.20
2022-10-08T02:17:54.744Z,18.38
2022-10-08T02:20:29.496Z,18.67
2022-10-08T02:23:23.707Z,19.23
2022-10-08T02:25:55.893Z,17.80
2022-10-08T02:28:31.852Z,18.30
2022-10-08T02:31:07.818Z,18.13
2022-10-08T02:33:41.332Z,18.10
2022-10-08T02:36:12.802Z,19.42
2022-10-08T02:38:46.103Z,20.05
2022-10-08T02:41:16.152Z,21.02
2022-10-08T02:43:49.112Z,18.80
2022-10-08T02:46:21.636Z,19.45
2022-10-08T02:48:53.312Z,19.77
2022-10-08T02:51:21.990Z,21.48
2022-10-08T02:53:50.481Z,19.65
2022-10-08T02:56:25.830Z,20.15
2022-10-08T02:58:54.138Z,19.17
2022-10-08T03:01:30.748Z,20.80
2022-10-08T03:04:04.628Z,20.60
2022-10-08T03:06:33.694Z,19.33
2022-10-08T03:09:03.295Z,18.10
2022-10-08T03:11:32.114Z,17.60
2022-10-08T03:14:04.278Z,17.25
2022-10-08T03:16:44.053Z,18.67
2022-10-08T03:19:14.992Z,18.63
2022-10-08T03:21:44.797Z,19.10
2022-10-08T03:24:15.033Z,18.85
2022-10-08T03:26:43.373Z,18.75
2022-10-08T03:29:13.121Z,17.17
2022-10-08T03:32:56.688Z,18.90
2022-10-08T03:35:29.389Z,17.13
2022-10-08T03:37:57.489Z,14.60
2022-10-08T03:40:25.758Z,17.48
2022-10-08T03:42:53.831Z,15.23
2022-10-08T03:45:21.872Z,17.40
2022-10-08T03:47:53.306Z,15.70
2022-10-08T03:50:22.270Z,15.90
2022-10-08T03:52:51.727Z,14.68
2022-10-08T03:55:19.845Z,16.10
2022-10-08T03:57:47.998Z,14.35
2022-10-08T04:00:16.319Z,15.38
2022-10-08T04:02:44.591Z,13.45
2022-10-08T04:05:12.867Z,15.38
2022-10-08T04:07:40.929Z,13.35
2022-10-08T04:10:11.342Z,14.30
2022-10-08T04:12:39.595Z,14.93
2022-10-08T04:15:09.305Z,17.85
2022-10-08T04:17:37.703Z,15.25
2022-10-08T04:20:06.721Z,14.70
2022-10-08T04:22:35.406Z,16.27
2022-10-08T04:25:03.597Z,15.73
2022-10-08T04:27:33.339Z,15.35
2022-10-08T04:30:01.548Z,14.40
2022-10-08T04:32:30.189Z,13.70
2022-10-08T04:34:58.461Z,14.43
2022-10-08T04:37:26.875Z,15.65
2022-10-08T04:39:55.349Z,14.63
2022-10-08T04:42:23.723Z,14.95
2022-10-08T04:44:53.357Z,15.15
2022-10-08T04:47:21.549Z,14.68
2022-10-08T04:49:50.073Z,13.52
2022-10-08T04:52:24.816Z,14.52
2022-10-08T04:54:53.311Z,14.52
2022-10-08T04:57:21.609Z,13.82
2022-10-08T05:00:13.538Z,15.40
2022-10-08T05:02:39.363Z,14.98
2022-10-08T05:05:08.467Z,16.10
2022-10-08T05:07:37.045Z,15.55
2022-10-08T05:10:06.026Z,15.43
2022-10-08T05:12:34.288Z,15.93
2022-10-08T05:15:02.747Z,15.45
2022-10-08T05:17:31.094Z,14.95
2022-10-08T05:20:00.735Z,15.82
2022-10-08T05:22:29.388Z,14.90
2022-10-08T05:24:58.145Z,15.15
2022-10-08T05:27:26.569Z,13.68
2022-10-08T05:29:54.721Z,14.73
2022-10-08T05:32:23.217Z,13.75
2022-10-08T05:34:51.521Z,15.57
2022-10-08T05:37:22.036Z,14.80
2022-10-08T05:39:50.801Z,14.95
2022-10-08T05:42:19.209Z,13.02
2022-10-08T05:44:47.641Z,15.25
2022-10-08T05:47:15.696Z,15.90
2022-10-08T05:49:43.824Z,13.40
2022-10-08T05:52:17.603Z,14.50
2022-10-08T05:54:47.487Z,12.77
2022-10-08T05:57:15.823Z,15.18
2022-10-08T05:59:44.155Z,14.75
2022-10-08T06:02:12.929Z,15.02
2022-10-08T06:04:41.106Z,15.15
2022-10-08T06:07:09.424Z,15.20
2022-10-08T06:09:37.845Z,16.05
2022-10-08T06:12:08.803Z,15.57
2022-10-08T06:14:37.361Z,16.83
2022-10-08T06:17:05.975Z,15.27
2022-10-08T06:19:37.261Z,15.18
2022-10-08T06:22:06.135Z,16.27
2022-10-08T06:24:34.658Z,15.93
2022-10-08T06:27:03.341Z,16.65
2022-10-08T06:29:33.224Z,16.48
2022-10-08T06:32:02.606Z,15.85
2022-10-08T06:34:31.299Z,15.25
2022-10-08T06:37:00.940Z,14.73
2022-10-08T06:39:28.988Z,16.25
2022-10-08T06:41:57.436Z,17.02
2022-10-08T06:44:32.537Z,17.33
2022-10-08T06:47:00.798Z,15.57
2022-10-08T06:49:29.341Z,14.13
2022-10-08T06:51:57.706Z,15.13
2022-10-08T06:54:27.486Z,18.15
2022-10-08T06:56:55.820Z,16.27
2022-10-08T06:59:24.110Z,15.30
2022-10-08T07:01:53.646Z,16.10
2022-10-08T07:04:22.105Z,17.60
2022-10-08T07:06:50.521Z,18.40
2022-10-08T07:09:18.983Z,19.95
2022-10-08T07:11:47.413Z,17.40
2022-10-08T07:14:16.155Z,19.17
2022-10-08T07:16:44.370Z,20.15
2022-10-08T07:19:15.397Z,19.40
2022-10-08T07:21:43.563Z,21.20
2022-10-08T07:24:12.055Z,20.85
2022-10-08T07:26:40.562Z,18.33
2022-10-08T07:29:13.909Z,21.98
2022-10-08T07:31:42.822Z,21.65
2022-10-08T07:34:14.340Z,21.10
2022-10-08T07:36:43.480Z,21.33
2022-10-08T07:39:14.953Z,20.17
2022-10-08T07:41:43.377Z,20.08
2022-10-08T07:44:12.684Z,20.52
2022-10-08T07:46:44.837Z,19.30
2022-10-08T07:49:15.630Z,18.50
2022-10-08T07:51:44.074Z,18.30
2022-10-08T07:54:15.431Z,17.50
2022-10-08T07:56:44.227Z,19.08
2022-10-08T07:59:15.237Z,17.88
2022-10-08T08:01:44.288Z,17.75
2022-10-08T08:04:14.816Z,18.20
2022-10-08T08:06:44.918Z,18.30
2022-10-08T08:09:14.491Z,17.33
2022-10-08T08:11:42.784Z,16.25
2022-10-08T08:14:11.489Z,14.63
2022-10-08T08:16:40.423Z,16.70
2022-10-08T08:19:08.829Z,16.38
2022-10-08T08:21:40.119Z,15.52
2022-10-08T08:24:10.913Z,17.58
2022-10-08T08:26:41.028Z,17.45
2022-10-08T08:29:12.142Z,15.13
2022-10-08T08:31:43.552Z,17.23
2022-10-08T08:34:16.533Z,18.52
2022-10-08T08:36:48.917Z,18.10
2022-10-08T08:39:20.412Z,16.90
2022-10-08T08:42:16.330Z,17.52
2022-10-08T08:44:46.138Z,17.15
2022-10-08T08:47:19.720Z,15.82
2022-10-08T08:49:52.198Z,17.65
2022-10-08T08:52:25.064Z,17.65
2022-10-08T08:54:55.137Z,17.40
2022-10-08T08:57:35.269Z,17.17
2022-10-08T09:00:09.046Z,17.20
2022-10-08T09:02:41.572Z,18.55
2022-10-08T09:05:14.099Z,19.38
2022-10-08T09:07:48.232Z,19.05
2022-10-08T09:10:22.627Z,17.92
2022-10-08T09:12:58.985Z,18.35
2022-10-08T09:15:38.371Z,17.73
2022-10-08T09:18:07.130Z,18.10
2022-10-08T09:20:40.172Z,19.48
2022-10-08T09:23:16.347Z,19.27
2022-10-08T09:25:49.627Z,18.90
2022-10-08T09:28:41.551Z,19.00
2022-10-08T09:31:31.530Z,18.30
2022-10-08T09:34:05.363Z,18.50
2022-10-08T09:36:45.582Z,17.95
2022-10-08T09:39:21.950Z,16.90
2022-10-08T09:42:14.312Z,15.77
2022-10-08T09:44:44.626Z,17.65
2022-10-08T09:47:14.450Z,19.27
2022-10-08T09:49:43.525Z,17.63
2022-10-08T09:52:19.968Z,19.70
2022-10-08T09:54:53.408Z,19.45
2022-10-08T09:57:23.344Z,18.52
2022-10-08T09:59:55.241Z,19.15
2022-10-08T10:02:31.501Z,19.40
2022-10-08T10:05:02.846Z,19.08
2022-10-08T10:07:41.616Z,18.63
2022-10-08T10:10:27.509Z,20.35
2022-10-08T10:12:59.747Z,18.48
2022-10-08T10:15:33.850Z,20.40
2022-10-08T10:18:06.208Z,18.55
2022-10-08T10:20:38.830Z,17.48
2022-10-08T10:23:15.711Z,18.20
2022-10-08T10:25:49.643Z,17.08
2022-10-08T10:28:35.577Z,18.33
2022-10-08T10:31:09.538Z,19.02
2022-10-08T10:33:44.479Z,19.42
2022-10-08T10:36:17.599Z,17.80
2022-10-08T10:38:53.727Z,16.30
2022-10-08T10:41:31.431Z,16.95
2022-10-08T10:44:03.764Z,15.18
2022-10-08T10:46:38.021Z,15.45
2022-10-08T10:49:15.594Z,15.95
2022-10-08T10:52:05.234Z,17.73
2022-10-08T10:54:59.653Z,17.42
2022-10-08T10:57:41.467Z,18.02
2022-10-08T11:00:15.441Z,18.17
2022-10-08T11:02:51.621Z,18.27
2022-10-08T11:05:24.539Z,17.15
2022-10-08T11:08:12.537Z,19.10
2022-10-08T11:10:54.819Z,18.00
2022-10-08T11:13:40.748Z,17.83
2022-10-08T11:16:23.716Z,18.05
2022-10-08T11:18:55.873Z,15.52
2022-10-08T11:21:46.964Z,16.65
2022-10-08T11:24:33.792Z,16.10
2022-10-08T11:27:11.511Z,14.35
2022-10-08T11:29:51.292Z,15.65
2022-10-08T11:32:21.853Z,16.90
2022-10-08T11:34:54.522Z,17.50
2022-10-08T11:37:29.317Z,17.05
2022-10-08T11:40:05.185Z,17.25
2022-10-08T11:42:48.122Z,17.67
2022-10-08T11:45:31.909Z,15.70
2022-10-08T11:48:07.730Z,15.40
2022-10-08T11:50:51.540Z,16.55
2022-10-08T11:53:23.480Z,14.85
2022-10-08T11:55:55.407Z,14.00
2022-10-08T11:58:29.128Z,15.75
2022-10-08T12:01:06.681Z,14.50
2022-10-08T12:03:38.700Z,15.15
2022-10-08T12:06:20.679Z,13.23
2022-10-08T12:08:54.689Z,13.20
2022-10-08T12:11:52.617Z,14.13
2022-10-08T12:14:37.722Z,15.20
2022-10-08T12:17:12.953Z,15.45
2022-10-08T12:20:04.775Z,14.52
2022-10-08T12:23:00.616Z,15.65
2022-10-08T12:25:38.897Z,10.23
2022-10-08T12:28:40.218Z,7.85
2022-10-08T12:31:31.079Z,7.82
2022-10-08T12:34:13.439Z,7.47
2022-10-08T12:37:05.720Z,6.22
2022-10-08T12:39:41.955Z,7.10
2022-10-08T12:42:20.618Z,6.53
2022-10-08T12:44:59.574Z,6.07
2022-10-08T12:47:40.676Z,6.10
2022-10-08T12:50:34.070Z,6.63
2022-10-08T12:53:06.450Z,6.35
2022-10-08T12:55:39.600Z,6.60
2022-10-08T12:58:08.834Z,5.80
2022-10-08T13:00:39.767Z,5.30
2022-10-08T13:03:15.447Z,6.53
2022-10-08T13:05:47.843Z,5.53
2022-10-08T13:08:26.952Z,5.10
2022-10-08T13:10:56.646Z,3.80
2022-10-08T13:13:43.338Z,4.00
2022-10-08T13:16:16.085Z,4.82
2022-10-08T13:18:47.211Z,3.60
2022-10-08T13:21:35.051Z,3.50
2022-10-08T13:24:05.528Z,3.35
2022-10-08T13:26:43.514Z,3.70
2022-10-08T13:29:20.938Z,2.83
2022-10-08T13:31:55.432Z,2.67
2022-10-08T13:34:26.669Z,3.00
2022-10-08T13:36:59.417Z,2.75
2022-10-08T13:39:30.933Z,2.10
2022-10-08T13:42:03.522Z,2.35
2022-10-08T13:44:34.260Z,2.70
2022-10-08T13:47:03.969Z,2.72
2022-10-08T13:49:34.242Z,2.35
2022-10-08T13:52:04.339Z,2.28
2022-10-08T13:54:40.230Z,2.72
2022-10-08T13:57:11.455Z,1.80
2022-10-08T13:59:40.274Z,2.17
2022-10-08T14:02:09.587Z,2.15
2022-10-08T14:04:37.766Z,2.13
2022-10-08T14:07:16.244Z,2.75
2022-10-08T14:09:45.014Z,2.10
2022-10-08T14:12:15.007Z,2.15
2022-10-08T14:14:45.153Z,2.42
2022-10-08T14:17:14.102Z,2.45
2022-10-08T14:19:42.480Z,2.03
2022-10-08T14:22:13.485Z,2.20
2022-10-08T14:24:42.998Z,2.40
2022-10-08T14:27:12.335Z,2.65
2022-10-08T14:29:40.747Z,2.42
2022-10-08T14:32:11.840Z,2.50
2022-10-08T14:34:41.003Z,1.70
2022-10-08T14:37:12.963Z,1.90
2022-10-08T14:39:42.144Z,2.40
2022-10-08T14:42:10.995Z,2.50
2022-10-08T14:44:39.892Z,1.83
2022-10-08T14:47:10.508Z,1.92
2022-10-08T14:49:40.463Z,2.22
2022-10-08T14:52:09.507Z,2.30
2022-10-08T14:54:40.094Z,1.67
2022-10-08T14:57:08.785Z,1.75
2022-10-08T14:59:40.343Z,3.78
2022-10-08T15:02:11.873Z,1.50
2022-10-08T15:04:41.209Z,2.08
2022-10-08T15:07:10.036Z,1.25
2022-10-08T15:09:40.643Z,1.70
2022-10-08T15:12:09.506Z,1.20
2022-10-08T15:14:38.646Z,1.60
2022-10-08T15:17:07.034Z,1.52
2022-10-08T15:19:35.660Z,2.28
2022-10-08T15:22:04.492Z,2.20
2022-10-08T15:24:33.624Z,2.20
2022-10-08T15:27:03.859Z,2.15
2022-10-08T15:29:32.457Z,1.80
2022-10-08T15:32:02.682Z,2.13
2022-10-08T15:34:34.934Z,1.90
2022-10-08T15:37:03.897Z,2.50
2022-10-08T15:39:35.773Z,1.73
2022-10-08T15:42:06.146Z,1.85
2022-10-08T15:44:35.408Z,2.10
2022-10-08T15:47:07.065Z,2.22
2022-10-08T15:49:37.296Z,2.30
2022-10-08T15:52:08.232Z,1.92
2022-10-08T15:54:37.711Z,2.38
2022-10-08T15:57:08.556Z,3.00
2022-10-08T15:59:38.566Z,2.42
2022-10-08T16:02:10.741Z,1.92
2022-10-08T16:04:43.562Z,2.05
2022-10-08T16:07:12.406Z,2.75
2022-10-08T16:09:41.129Z,2.88
2022-10-08T16:12:12.305Z,2.78
2022-10-08T16:14:40.874Z,3.05
2022-10-08T16:17:09.364Z,3.03
2022-10-08T16:19:38.599Z,2.90
2022-10-08T16:22:09.470Z,2.30
2022-10-08T16:24:38.097Z,4.00
2022-10-08T16:27:07.253Z,3.28
2022-10-08T16:29:38.031Z,2.40
2022-10-08T16:32:11.482Z,2.40
2022-10-08T16:34:42.962Z,3.30
2022-10-08T16:37:13.701Z,2.35
2022-10-08T16:39:42.942Z,2.42
2022-10-08T16:42:12.196Z,2.13
2022-10-08T16:44:42.917Z,2.42
2022-10-08T16:47:12.181Z,2.58
2022-10-08T16:49:41.764Z,2.67
2022-10-08T16:52:11.667Z,3.05
2022-10-08T16:54:41.401Z,2.70
2022-10-08T16:57:09.708Z,2.50
2022-10-08T16:59:39.265Z,2.33
2022-10-08T17:02:11.820Z,2.80
2022-10-08T17:04:41.479Z,3.30
2022-10-08T17:07:10.379Z,2.70
2022-10-08T17:09:39.036Z,3.20
2022-10-08T17:12:08.009Z,3.42
2022-10-08T17:14:37.957Z,4.20
2022-10-08T17:17:07.072Z,3.83
2022-10-08T17:19:38.346Z,4.38
2022-10-08T17:22:07.699Z,4.25
2022-10-08T17:24:41.559Z,5.35
2022-10-08T17:27:14.057Z,5.95
2022-10-08T17:29:43.097Z,4.80
2022-10-08T17:32:13.597Z,5.45
2022-10-08T17:34:45.467Z,3.85
2022-10-08T17:37:13.969Z,4.05
2022-10-08T17:39:43.702Z,3.65
2022-10-08T17:42:12.213Z,4.05
2022-10-08T17:44:40.446Z,5.05
2022-10-08T17:47:09.867Z,4.13
2022-10-08T17:49:38.165Z,4.35
2022-10-08T17:52:09.439Z,5.70
2022-10-08T17:54:38.935Z,5.80
2022-10-08T17:57:07.019Z,5.43
2022-10-08T17:59:35.901Z,4.72
2022-10-08T18:02:05.919Z,5.03
2022-10-08T18:04:34.747Z,5.15
2022-10-08T18:07:03.786Z,4.90
2022-10-08T18:09:37.404Z,4.28
2022-10-08T18:12:06.273Z,4.35
2022-10-08T18:14:36.169Z,4.45
2022-10-08T18:17:04.902Z,5.18
2022-10-08T18:19:33.670Z,5.00
2022-10-08T18:22:03.470Z,4.45
2022-10-08T18:24:33.426Z,4.20
2022-10-08T18:27:04.502Z,4.57
2022-10-08T18:29:33.629Z,3.65
2022-10-08T18:32:05.111Z,3.63
2022-10-08T18:34:34.467Z,3.40
2022-10-08T18:37:04.379Z,3.35
2022-10-08T18:39:32.490Z,3.47
2022-10-08T18:42:01.018Z,4.25
2022-10-08T18:44:30.833Z,3.90
2022-10-08T18:47:03.139Z,4.80
2022-10-08T18:49:34.445Z,4.30
2022-10-08T18:52:03.991Z,4.00
2022-10-08T18:54:32.618Z,4.38
2022-10-08T18:57:01.703Z,4.60
2022-10-08T18:59:34.865Z,5.22
2022-10-08T19:02:03.327Z,5.25
2022-10-08T19:04:32.021Z,4.78
2022-10-08T19:07:01.726Z,5.75
2022-10-08T19:09:33.556Z,5.90
2022-10-08T19:12:03.876Z,4.72
2022-10-08T19:14:34.195Z,4.95
2022-10-08T19:17:03.542Z,6.07
2022-10-08T19:19:33.173Z,5.40
2022-10-08T19:22:01.884Z,5.63
2022-10-08T19:24:31.288Z,6.38
2022-10-08T19:26:59.689Z,6.90
2022-10-08T19:29:33.317Z,5.90
2022-10-08T19:32:05.645Z,7.15
2022-10-08T19:34:35.002Z,7.45
2022-10-08T19:37:05.733Z,6.95
2022-10-08T19:39:35.294Z,6.25
2022-10-08T19:42:05.093Z,6.82
2022-10-08T19:44:34.212Z,6.72
2022-10-08T19:47:04.724Z,6.53
2022-10-08T19:49:33.146Z,7.38
2022-10-08T19:52:02.366Z,9.63
2022-10-08T19:54:33.319Z,7.15
2022-10-08T19:57:03.264Z,6.30
2022-10-08T19:59:32.043Z,6.68
2022-10-08T20:02:01.097Z,5.25
2022-10-08T20:04:30.882Z,6.68
2022-10-08T20:07:01.698Z,6.30
2022-10-08T20:09:31.008Z,5.93
2022-10-08T20:11:59.495Z,6.05
2022-10-08T20:14:28.751Z,5.70
2022-10-08T20:16:58.283Z,6.80
2022-10-08T20:19:27.369Z,6.32
2022-10-08T20:21:57.022Z,7.30
2022-10-08T20:24:25.339Z,7.22
2022-10-08T20:26:54.525Z,6.20
2022-10-08T20:29:28.652Z,8.23
2022-10-08T20:31:57.573Z,7.80
2022-10-08T20:34:31.130Z,7.25
2022-10-08T20:37:02.795Z,6.85
2022-10-08T20:39:32.119Z,6.45
2022-10-08T20:42:00.596Z,6.30
2022-10-08T20:44:28.920Z,6.82
2022-10-08T20:46:57.267Z,7.07
2022-10-08T20:49:26.112Z,7.95
2022-10-08T20:51:54.387Z,7.82
2022-10-08T20:54:24.354Z,7.10
2022-10-08T20:56:53.390Z,7.45
2022-10-08T20:59:23.447Z,7.47
2022-10-08T21:01:53.048Z,8.07
2022-10-08T21:04:22.534Z,7.40
2022-10-08T21:06:52.365Z,7.45
2022-10-08T21:09:23.063Z,7.18
2022-10-08T21:11:53.883Z,7.00
2022-10-08T21:14:23.610Z,6.75
2022-10-08T21:16:53.568Z,7.63
2022-10-08T21:19:23.606Z,6.95
2022-10-08T21:21:53.160Z,7.28
2022-10-08T21:24:23.900Z,5.95
2022-10-08T21:26:52.134Z,7.78
2022-10-08T21:29:20.678Z,7.38
2022-10-08T21:31:49.562Z,6.68
2022-10-08T21:34:18.766Z,7.10
2022-10-08T21:36:47.586Z,7.25
2022-10-08T21:39:18.168Z,7.95
2022-10-08T21:41:47.913Z,6.95
2022-10-08T21:44:16.942Z,7.40
2022-10-08T21:46:46.273Z,7.70
2022-10-08T21:49:17.139Z,8.38
2022-10-08T21:51:46.589Z,7.70
2022-10-08T21:54:17.175Z,6.57
2022-10-08T21:56:47.675Z,6.80
2022-10-08T21:59:17.147Z,6.45
2022-10-08T22:01:47.850Z,6.55
2022-10-08T22:04:19.157Z,5.03
2022-10-08T22:06:49.571Z,5.70
2022-10-08T22:09:20.183Z,5.88
2022-10-08T22:11:49.723Z,5.47
2022-10-08T22:14:18.698Z,5.22
2022-10-08T22:16:47.519Z,5.38
2022-10-08T22:19:17.037Z,6.20
2022-10-08T22:21:45.670Z,4.10
2022-10-08T22:24:13.904Z,4.78
2022-10-08T22:26:44.417Z,4.95
2022-10-08T22:29:14.556Z,3.60
2022-10-08T22:31:43.613Z,4.50
2022-10-08T22:34:12.073Z,4.85
2022-10-08T22:36:42.830Z,4.13
2022-10-08T22:39:11.844Z,5.72
2022-10-08T22:41:40.072Z,3.65
2022-10-08T22:44:08.271Z,3.88
2022-10-08T22:46:39.758Z,4.03
2022-10-08T22:49:10.275Z,3.97
2022-10-08T22:51:38.858Z,4.07
2022-10-08T22:54:07.198Z,3.40
2022-10-08T22:56:36.145Z,4.22
2022-10-08T22:59:04.795Z,3.97
2022-10-08T23:01:32.991Z,3.13
2022-10-08T23:04:03.240Z,3.58
2022-10-08T23:06:33.546Z,3.58
2022-10-08T23:09:03.971Z,3.60
2022-10-08T23:11:32.974Z,3.88
2022-10-08T23:14:02.261Z,3.58
2022-10-08T23:16:32.270Z,3.33
2022-10-08T23:19:04.657Z,3.67
2022-10-08T23:21:32.884Z,3.45
2022-10-08T23:24:01.221Z,3.47
2022-10-08T23:26:29.816Z,3.28
2022-10-08T23:28:59.732Z,3.80
2022-10-08T23:31:30.483Z,3.10
2022-10-08T23:33:59.408Z,4.20
2022-10-08T23:36:31.833Z,4.25
2022-10-08T23:39:00.272Z,3.72
2022-10-08T23:41:29.518Z,3.28
2022-10-08T23:43:59.166Z,6.65
2022-10-08T23:46:29.348Z,4.72
2022-10-08T23:48:59.004Z,4.05
2022-10-08T23:51:31.606Z,3.00
2022-10-08T23:54:01.141Z,4.63
2022-10-08T23:56:29.587Z,4.25
2022-10-08T23:58:57.880Z,4.70
